Time;durP1;ratioP1;P1;durP2;ratioP2;P2;SDS_P1;SDS_P2;PMS_P1;PMS_P2;Temp;Humidity;BMP_temperature;BMP_pressure;BME280_temperature;BME280_humidity;BME280_pressure;Samples;Min_cycle;Max_cycle;Signal;HPM_P1;HPM_P2
2023/10/09 00:01:13;;;;;;;0.20;0.15;;;13.10;99.90;;;;;;5075681;28;20048;-74
2023/10/09 00:03:43;;;;;;;0.10;0.10;;;13.10;99.90;;;;;;5109568;27;20047;-74
2023/10/09 00:06:12;;;;;;;0.10;0.10;;;13.10;99.90;;;;;;5115052;27;20040;-75
2023/10/09 00:08:39;;;;;;;1.50;0.75;;;13.10;99.90;;;;;;5078213;28;20374;-75
2023/10/09 00:11:17;;;;;;;0.20;0.20;;;13.10;99.90;;;;;;5112719;27;20043;-73
2023/10/09 00:13:51;;;;;;;1.25;0.30;;;13.10;99.90;;;;;;5079479;28;20046;-74
2023/10/09 00:19:17;;;;;;;0.10;0.10;;;13.10;99.90;;;;;;5079739;28;20043;-75
2023/10/09 00:21:44;;;;;;;0.50;0.50;;;13.10;99.90;;;;;;5114199;27;20028;-75
2023/10/09 00:24:13;;;;;;;0.20;0.20;;;13.10;99.90;;;;;;5080623;28;20078;-74
2023/10/09 00:26:45;;;;;;;3.75;0.52;;;13.10;99.90;;;;;;5114597;28;20027;-74
2023/10/09 00:29:15;;;;;;;1.00;0.93;;;13.10;99.90;;;;;;5074056;28;20036;-74
2023/10/09 00:31:49;;;;;;;0.50;0.50;;;13.20;99.90;;;;;;5077088;28;20035;-74
2023/10/09 00:34:19;;;;;;;0.57;0.57;;;13.20;99.90;;;;;;5111653;28;20381;-74
2023/10/09 00:36:51;;;;;;;1.70;1.15;;;13.20;99.90;;;;;;5066580;28;20066;-73
2023/10/09 00:39:41;;;;;;;;;;;13.20;99.90;;;;;;5118891;27;20036;-73
2023/10/09 00:42:08;;;;;;;0.28;0.28;;;13.20;99.90;;;;;;5079391;28;19946;-73
2023/10/09 00:44:40;;;;;;;0.52;0.52;;;13.20;99.90;;;;;;5111584;27;20043;-73
2023/10/09 00:47:20;;;;;;;0.75;0.70;;;13.20;99.90;;;;;;5112807;27;20035;-74
2023/10/09 00:49:58;;;;;;;0.57;0.57;;;13.10;99.90;;;;;;5078329;28;20032;-74
2023/10/09 00:52:31;;;;;;;1.85;0.20;;;13.10;99.90;;;;;;5117057;27;20041;-73
2023/10/09 00:55:05;;;;;;;1.50;0.82;;;13.20;99.90;;;;;;5113349;28;20144;-75
2023/10/09 00:57:34;;;;;;;0.15;0.15;;;13.20;99.90;;;;;;5093190;28;20063;-73
2023/10/09 01:00:00;;;;;;;0.75;0.75;;;13.20;99.90;;;;;;5109761;28;20081;-74
2023/10/09 01:02:35;;;;;;;0.30;0.30;;;13.20;99.90;;;;;;5085058;28;20086;-74
2023/10/09 01:05:12;;;;;;;0.93;0.50;;;13.20;99.90;;;;;;5078371;28;20098;-74
2023/10/09 01:07:44;;;;;;;0.88;0.73;;;13.20;99.90;;;;;;5074474;28;20036;-74
2023/10/09 01:10:11;;;;;;;1.20;1.08;;;13.20;99.90;;;;;;5078666;28;20089;-74
2023/10/09 01:12:43;;;;;;;3.30;0.43;;;13.20;99.90;;;;;;5076184;28;20040;-72
2023/10/09 01:15:09;;;;;;;0.70;0.55;;;13.30;99.90;;;;;;5072621;28;20039;-72
2023/10/09 01:17:45;;;;;;;4.20;2.47;;;13.30;99.90;;;;;;5112211;27;20047;-72
2023/10/09 01:20:16;;;;;;;0.43;0.43;;;13.30;99.90;;;;;;5111460;27;20036;-73
2023/10/09 01:22:43;;;;;;;0.63;0.52;;;13.30;99.90;;;;;;5113630;27;20447;-73
2023/10/09 01:25:09;;;;;;;4.72;4.07;;;13.30;99.90;;;;;;5078324;28;20101;-72
2023/10/09 01:27:40;;;;;;;0.63;0.32;;;13.30;99.90;;;;;;5111369;28;20108;-72
2023/10/09 01:30:06;;;;;;;3.80;1.48;;;13.30;99.90;;;;;;5098826;28;20499;-72
2023/10/09 01:32:34;;;;;;;2.38;1.13;;;13.30;99.90;;;;;;5083211;28;20036;-74
2023/10/09 01:35:00;;;;;;;2.50;1.63;;;13.30;99.90;;;;;;5116741;27;20043;-75
2023/10/09 01:37:29;;;;;;;1.77;0.68;;;13.30;99.90;;;;;;5082297;28;20331;-73
2023/10/09 01:39:58;;;;;;;4.25;1.17;;;13.30;99.90;;;;;;5081179;27;20058;-74
2023/10/09 01:42:34;;;;;;;2.78;1.08;;;13.40;99.90;;;;;;5110459;27;20075;-72
2023/10/09 01:45:13;;;;;;;1.67;1.58;;;13.40;99.90;;;;;;5086760;28;20039;-72
2023/10/09 01:47:39;;;;;;;1.58;1.23;;;13.40;99.90;;;;;;5069156;28;20039;-72
2023/10/09 01:50:11;;;;;;;2.17;1.05;;;13.30;99.90;;;;;;5071935;27;20041;-73
2023/10/09 01:52:37;;;;;;;1.50;1.27;;;13.40;99.90;;;;;;5098548;28;20040;-74
2023/10/09 01:55:27;;;;;;;2.53;1.17;;;13.40;99.90;;;;;;5088644;28;20035;-72
2023/10/09 01:57:48;;;;;;;1.83;1.10;;;13.40;99.90;;;;;;5084369;28;20051;-71
2023/10/09 02:00:22;;;;;;;3.35;0.85;;;13.40;99.90;;;;;;5115463;27;20047;-72
2023/10/09 02:02:48;;;;;;;2.15;1.02;;;13.40;99.90;;;;;;5083028;28;20048;-73
2023/10/09 02:07:51;;;;;;;1.55;0.68;;;13.50;99.90;;;;;;5083322;28;20044;-72
2023/10/09 02:13:06;;;;;;;7.57;1.85;;;13.50;99.90;;;;;;5078517;27;20528;-71
2023/10/09 02:18:18;;;;;;;4.15;2.25;;;13.60;99.90;;;;;;5084949;28;20134;-72
2023/10/09 02:26:18;;;;;;;5.93;1.85;;;13.60;99.90;;;;;;5082926;28;20092;-73
2023/10/09 02:28:52;;;;;;;2.30;1.33;;;13.70;99.90;;;;;;5114432;27;20131;-72
2023/10/09 02:31:18;;;;;;;4.80;2.17;;;13.70;99.90;;;;;;5113629;27;20063;-72
2023/10/09 02:33:44;;;;;;;2.72;1.60;;;13.60;99.90;;;;;;5113339;27;20050;-72
2023/10/09 02:36:13;;;;;;;9.90;1.98;;;13.70;99.90;;;;;;5080608;28;20040;-73
2023/10/09 02:38:42;;;;;;;3.80;0.75;;;13.70;99.90;;;;;;5084434;28;20032;-72
2023/10/09 02:44:10;;;;;;;5.20;3.20;;;13.70;99.90;;;;;;5093332;27;20134;-72
2023/10/09 02:46:29;;;;;;;2.08;1.42;;;13.70;99.90;;;;;;5116877;27;20545;-72
2023/10/09 02:48:57;;;;;;;2.92;0.80;;;13.70;99.90;;;;;;5114465;27;20121;-72
2023/10/09 02:53:57;;;;;;;3.05;2.75;;;13.80;99.90;;;;;;5086502;28;20417;-73
2023/10/09 02:59:24;;;;;;;3.13;1.48;;;13.80;99.90;;;;;;5029353;28;20064;-71
2023/10/09 03:01:53;;;;;;;3.33;2.00;;;13.90;99.90;;;;;;5074280;28;20047;-72
2023/10/09 03:04:19;;;;;;;2.05;1.95;;;13.90;99.90;;;;;;5086286;28;20428;-72
2023/10/09 03:06:51;;;;;;;2.65;1.45;;;13.90;99.90;;;;;;5084835;28;20039;-72
2023/10/09 03:09:30;;;;;;;4.90;2.33;;;13.90;99.90;;;;;;5069523;28;20519;-71
2023/10/09 03:12:09;;;;;;;5.25;0.98;;;13.90;99.90;;;;;;5112985;27;20031;-73
2023/10/09 03:14:44;;;;;;;4.88;2.33;;;14.00;99.90;;;;;;5110733;27;20118;-72
2023/10/09 03:17:11;;;;;;;5.28;2.15;;;14.00;99.90;;;;;;5111853;27;20070;-72
2023/10/09 03:19:37;;;;;;;2.60;2.17;;;14.00;99.90;;;;;;5112589;27;20039;-72
2023/10/09 03:22:04;;;;;;;1.33;1.25;;;14.00;99.90;;;;;;5082095;28;20038;-72
2023/10/09 03:24:32;;;;;;;5.00;2.58;;;14.00;99.90;;;;;;5083328;28;20032;-72
2023/10/09 03:26:58;;;;;;;4.28;2.47;;;14.00;99.90;;;;;;5085943;28;20115;-74
2023/10/09 03:29:25;;;;;;;6.72;1.42;;;14.10;99.90;;;;;;5081678;28;20418;-73
2023/10/09 03:31:51;;;;;;;1.58;1.33;;;14.10;99.90;;;;;;5073944;27;20122;-72
2023/10/09 03:34:18;;;;;;;1.45;1.33;;;14.10;99.90;;;;;;5084668;28;20114;-73
2023/10/09 03:36:47;;;;;;;1.98;1.80;;;14.10;99.90;;;;;;5083290;28;20042;-72
2023/10/09 03:41:58;;;;;;;4.85;2.15;;;14.10;99.90;;;;;;5092802;27;20052;-73
2023/10/09 03:44:28;;;;;;;3.83;1.63;;;14.10;99.90;;;;;;5090188;28;20055;-72
2023/10/09 03:46:54;;;;;;;4.00;2.40;;;14.20;99.90;;;;;;5127100;27;20031;-74
2023/10/09 03:49:26;;;;;;;6.40;2.80;;;14.20;99.90;;;;;;5093555;28;20081;-74
2023/10/09 03:51:52;;;;;;;0.93;0.93;;;14.20;99.90;;;;;;5090668;28;20474;-75
2023/10/09 03:54:22;;;;;;;3.08;1.98;;;14.30;99.90;;;;;;5084959;28;20035;-75
2023/10/09 03:56:54;;;;;;;3.28;1.55;;;14.40;99.90;;;;;;5074280;28;20444;-74
2023/10/09 03:59:21;;;;;;;7.25;2.33;;;14.40;99.90;;;;;;5115991;27;20044;-74
2023/10/09 04:01:52;;;;;;;2.30;2.08;;;14.50;99.90;;;;;;5087025;28;20452;-74
2023/10/09 04:04:22;;;;;;;4.32;2.33;;;14.40;99.90;;;;;;5101285;27;20075;-74
2023/10/09 04:06:48;;;;;;;7.68;2.88;;;14.60;99.90;;;;;;5082089;28;20096;-74
2023/10/09 04:11:57;;;;;;;5.03;1.45;;;14.80;99.90;;;;;;5087209;28;20050;-74
2023/10/09 04:14:33;;;;;;;2.92;1.25;;;14.90;99.90;;;;;;5093177;28;20066;-72
2023/10/09 04:20:14;;;;;;;3.85;0.75;;;15.10;99.90;;;;;;5084246;28;20116;-75
2023/10/09 04:22:39;;;;;;;7.20;1.58;;;15.20;99.90;;;;;;5077955;28;20082;-72
2023/10/09 04:25:15;;;;;;;2.90;1.98;;;15.30;99.90;;;;;;5115645;27;20054;-73
2023/10/09 04:27:44;;;;;;;3.72;2.65;;;15.40;99.90;;;;;;5084492;28;20046;-71
2023/10/09 04:30:15;;;;;;;4.70;1.88;;;15.40;99.90;;;;;;5089743;28;20043;-74
2023/10/09 04:32:44;;;;;;;4.88;3.13;;;15.50;99.90;;;;;;5118194;28;20039;-71
2023/10/09 04:35:22;;;;;;;12.20;1.55;;;15.50;99.90;;;;;;5085815;28;20040;-71
2023/10/09 04:38:04;;;;;;;2.97;1.70;;;15.60;99.90;;;;;;5090199;28;20405;-72
2023/10/09 04:43:27;;;;;;;1.15;1.05;;;15.70;99.90;;;;;;5049296;28;20483;-73
2023/10/09 04:46:12;;;;;;;3.88;1.58;;;15.70;99.90;;;;;;5082148;28;20036;-73
2023/10/09 04:48:38;;;;;;;4.13;1.02;;;15.80;99.90;;;;;;5087499;28;20036;-72
2023/10/09 04:51:21;;;;;;;2.20;1.83;;;15.80;99.90;;;;;;5072989;28;20043;-70
2023/10/09 04:56:36;;;;;;;1.15;1.08;;;15.90;99.90;;;;;;5086312;28;20050;-70
2023/10/09 04:59:07;;;;;;;1.33;1.23;;;16.00;99.90;;;;;;5119250;28;20051;-73
2023/10/09 05:01:46;;;;;;;1.92;0.60;;;16.00;99.90;;;;;;5119990;28;20474;-71
2023/10/09 05:07:22;;;;;;;1.83;1.70;;;16.10;99.90;;;;;;5046254;28;20041;-69
2023/10/09 05:10:14;;;;;;;1.33;1.08;;;16.10;99.90;;;;;;5081089;28;20058;-70
2023/10/09 05:12:46;;;;;;;6.35;2.13;;;16.10;99.90;;;;;;5118597;27;20071;-70
2023/10/09 05:15:13;;;;;;;1.75;1.58;;;16.10;99.90;;;;;;5086402;28;20457;-73
2023/10/09 05:17:39;;;;;;;4.00;1.90;;;16.10;99.90;;;;;;5091474;28;20534;-71
2023/10/09 05:22:59;;;;;;;4.05;1.40;;;16.20;99.90;;;;;;5124585;27;20051;-69
2023/10/09 05:25:53;;;;;;;2.08;1.17;;;16.20;99.90;;;;;;5096054;28;20440;-72
2023/10/09 05:28:31;;;;;;;3.75;1.38;;;16.20;99.90;;;;;;5094109;28;20097;-68
2023/10/09 05:31:07;;;;;;;2.65;1.42;;;16.20;99.90;;;;;;5109906;28;20118;-75
2023/10/09 05:33:36;;;;;;;10.15;1.60;;;16.30;99.90;;;;;;5097179;28;20035;-72
2023/10/09 05:38:58;;;;;;;2.53;0.98;;;16.30;99.90;;;;;;5095434;28;20104;-70
2023/10/09 05:41:47;;;;;;;1.33;1.25;;;16.30;99.90;;;;;;5096203;28;20040;-70
2023/10/09 05:49:47;;;;;;;1.90;1.65;;;16.40;99.90;;;;;;5096503;28;20075;-70
2023/10/09 06:08:26;;;;;;;1.17;0.68;;;16.30;99.90;;;;;;5093433;28;20131;-72
2023/10/09 06:13:45;;;;;;;1.63;1.33;;;16.30;99.90;;;;;;5076772;28;20047;-70
2023/10/09 06:16:29;;;;;;;2.17;0.95;;;16.30;99.90;;;;;;5110566;28;20505;-73
2023/10/09 06:19:07;;;;;;;1.95;1.15;;;16.30;99.90;;;;;;5096355;28;20058;-72
2023/10/09 06:22:09;;;;;;;1.17;1.08;;;16.40;99.90;;;;;;5095296;28;20040;-75
2023/10/09 06:24:33;;;;;;;1.75;0.60;;;16.40;99.90;;;;;;5096091;28;20051;-71
2023/10/09 06:32:34;;;;;;;5.50;1.20;;;16.40;99.90;;;;;;5094715;28;20067;-69
2023/10/09 06:35:16;;;;;;;0.85;0.73;;;16.40;99.90;;;;;;5126430;27;20040;-70
2023/10/09 06:58:55;;;;;;;0.63;0.63;;;16.40;99.90;;;;;;5087974;28;20058;-71
2023/10/09 07:03:53;;;;;;;0.68;0.68;;;16.40;99.90;;;;;;5095293;28;20075;-73
2023/10/09 07:06:23;;;;;;;1.55;0.55;;;16.50;99.90;;;;;;5073313;28;20046;-71
2023/10/09 07:17:21;;;;;;;3.47;0.85;;;16.50;99.90;;;;;;5093246;27;20587;-72
2023/10/09 07:24:57;;;;;;;1.55;1.45;;;16.60;99.90;;;;;;5089223;28;20139;-71
2023/10/09 07:30:36;;;;;;;0.20;0.20;;;16.60;99.90;;;;;;5093509;28;20042;-71
2023/10/09 07:35:57;;;;;;;0.65;0.65;;;16.70;99.90;;;;;;5093093;28;20043;-70
2023/10/09 07:38:29;;;;;;;0.85;0.55;;;16.70;99.90;;;;;;5108872;28;20055;-70
2023/10/09 07:43:35;;;;;;;0.45;0.45;;;16.70;99.90;;;;;;5093054;28;19928;-70
2023/10/09 07:48:52;;;;;;;2.42;1.35;;;16.70;99.90;;;;;;5093593;28;20040;-73
2023/10/09 07:51:22;;;;;;;1.05;0.40;;;16.80;99.90;;;;;;5124846;27;20118;-73
2023/10/09 07:53:57;;;;;;;1.58;1.17;;;16.80;99.90;;;;;;5128185;27;20122;-73
2023/10/09 07:56:23;;;;;;;1.42;1.05;;;16.80;99.90;;;;;;5077785;28;20156;-71
2023/10/09 07:58:49;;;;;;;1.55;1.00;;;16.90;99.90;;;;;;5093081;28;20120;-73
2023/10/09 08:01:16;;;;;;;1.88;1.27;;;16.80;99.90;;;;;;5091321;28;20130;-74
2023/10/09 08:03:45;;;;;;;0.57;0.32;;;16.90;99.90;;;;;;5093331;28;20035;-70
2023/10/09 08:17:13;;;;;;;0.55;0.55;;;17.00;99.90;;;;;;5119437;27;20036;-72
2023/10/09 08:19:56;;;;;;;0.98;0.47;;;17.00;99.90;;;;;;5093115;28;20036;-70
2023/10/09 08:24:57;;;;;;;0.50;0.50;;;17.10;99.90;;;;;;5089700;28;19970;-72
2023/10/09 08:32:43;;;;;;;2.35;0.95;;;17.20;99.90;;;;;;5092158;28;20089;-72
2023/10/09 08:35:29;;;;;;;1.70;1.35;;;17.20;99.90;;;;;;5076324;28;20039;-72
2023/10/09 08:38:00;;;;;;;2.72;0.95;;;17.20;99.90;;;;;;5075391;28;20096;-74
2023/10/09 08:40:39;;;;;;;0.43;0.43;;;17.20;99.90;;;;;;5086743;28;20051;-73
2023/10/09 08:43:18;;;;;;;1.13;1.08;;;17.20;99.90;;;;;;5090354;28;20093;-74
2023/10/09 08:45:51;;;;;;;2.00;1.80;;;17.20;99.90;;;;;;5097367;28;20040;-75
2023/10/09 08:48:18;;;;;;;2.30;1.48;;;17.20;99.90;;;;;;5096196;28;20040;-74
2023/10/09 08:50:54;;;;;;;1.15;0.63;;;17.20;99.90;;;;;;5096049;28;20039;-73
2023/10/09 08:53:20;;;;;;;0.60;0.50;;;17.20;99.90;;;;;;5093800;28;20049;-74
2023/10/09 08:55:46;;;;;;;1.13;1.08;;;17.20;99.90;;;;;;5097217;28;20481;-72
2023/10/09 08:58:32;;;;;;;2.08;0.57;;;17.20;99.90;;;;;;5097148;28;20087;-72
2023/10/09 09:01:00;;;;;;;0.52;0.52;;;17.30;99.90;;;;;;5097173;28;20508;-71
2023/10/09 09:03:43;;;;;;;1.35;1.25;;;17.30;99.90;;;;;;5095510;28;20048;-75
2023/10/09 09:06:09;;;;;;;0.73;0.73;;;17.30;99.90;;;;;;5078518;28;20116;-75
2023/10/09 09:08:37;;;;;;;1.13;0.90;;;17.20;99.90;;;;;;5093442;28;20036;-71
2023/10/09 09:11:11;;;;;;;3.38;1.23;;;17.20;99.90;;;;;;5080250;28;20035;-72
2023/10/09 09:13:48;;;;;;;0.95;0.82;;;17.20;99.90;;;;;;5095161;28;20055;-73
2023/10/09 09:16:16;;;;;;;0.70;0.70;;;17.20;99.90;;;;;;5083918;28;20047;-73
2023/10/09 09:18:51;;;;;;;0.50;0.45;;;17.20;99.90;;;;;;5095348;28;20206;-71
2023/10/09 09:21:22;;;;;;;0.88;0.63;;;17.20;99.90;;;;;;5076510;28;20132;-72
2023/10/09 09:24:01;;;;;;;4.63;0.68;;;17.10;99.90;;;;;;5135258;27;20047;-71
2023/10/09 09:26:37;;;;;;;0.90;0.85;;;17.10;99.90;;;;;;5090547;28;20039;-70
2023/10/09 09:29:06;;;;;;;0.75;0.63;;;17.10;99.90;;;;;;5097095;28;20407;-72
2023/10/09 09:31:41;;;;;;;2.95;0.60;;;17.10;99.90;;;;;;5091926;28;20444;-72
2023/10/09 09:34:17;;;;;;;2.72;0.90;;;17.10;99.90;;;;;;5129882;27;20075;-73
2023/10/09 09:36:58;;;;;;;0.80;0.30;;;17.20;99.90;;;;;;5097151;28;20050;-71
2023/10/09 09:39:28;;;;;;;1.02;1.00;;;17.20;99.90;;;;;;5076425;28;20478;-73
2023/10/09 09:42:07;;;;;;;0.30;0.30;;;17.30;99.90;;;;;;5111348;28;20048;-74
2023/10/09 09:44:43;;;;;;;0.50;0.50;;;17.30;99.90;;;;;;5123819;27;20547;-71
2023/10/09 09:47:12;;;;;;;2.55;0.70;;;17.30;99.90;;;;;;5094556;28;20042;-71
2023/10/09 09:49:42;;;;;;;1.45;0.40;;;17.30;99.90;;;;;;5094754;28;20230;-70
2023/10/09 09:52:12;;;;;;;0.65;0.65;;;17.30;99.90;;;;;;5095287;28;20043;-73
2023/10/09 09:54:38;;;;;;;1.58;0.40;;;17.30;99.90;;;;;;5094786;28;20042;-70
2023/10/09 09:57:08;;;;;;;2.30;1.20;;;17.30;99.90;;;;;;5093880;28;20424;-70
2023/10/09 09:59:40;;;;;;;3.13;2.20;;;17.30;99.90;;;;;;5094454;28;20047;-74
2023/10/09 10:02:10;;;;;;;2.05;1.85;;;17.30;99.90;;;;;;5094290;28;20057;-71
2023/10/09 10:04:40;;;;;;;1.42;1.33;;;17.30;99.90;;;;;;5094372;28;20477;-71
2023/10/09 10:07:09;;;;;;;8.20;0.77;;;17.30;99.90;;;;;;5087322;28;20481;-74
2023/10/09 10:09:44;;;;;;;0.28;0.22;;;17.40;99.90;;;;;;5094024;28;20089;-72
2023/10/09 10:12:13;;;;;;;0.95;0.82;;;17.40;99.90;;;;;;5078110;28;20126;-73
2023/10/09 10:14:53;;;;;;;2.20;0.63;;;17.50;99.90;;;;;;5095699;28;20455;-74
2023/10/09 10:17:22;;;;;;;0.47;0.47;;;17.60;99.90;;;;;;5089602;28;20089;-70
2023/10/09 10:19:59;;;;;;;0.20;0.20;;;17.60;99.90;;;;;;5094662;28;20079;-75
2023/10/09 10:22:33;;;;;;;0.57;0.55;;;17.70;99.90;;;;;;5092655;28;20122;-73
2023/10/09 10:25:02;;;;;;;1.98;0.93;;;17.80;99.90;;;;;;5094996;28;20039;-73
2023/10/09 10:27:28;;;;;;;3.10;0.55;;;17.80;99.90;;;;;;5094021;28;20096;-76
2023/10/09 10:30:10;;;;;;;2.45;0.73;;;17.90;99.90;;;;;;5094625;28;20379;-72
2023/10/09 10:32:51;;;;;;;0.88;0.80;;;17.90;99.90;;;;;;5093697;28;20032;-74
2023/10/09 10:35:20;;;;;;;1.58;1.50;;;18.00;99.90;;;;;;5074558;28;20047;-75
2023/10/09 10:38:02;;;;;;;0.35;0.35;;;18.10;99.90;;;;;;5082931;28;20075;-73
2023/10/09 10:46:13;;;;;;;1.00;0.63;;;18.20;99.90;;;;;;5093883;28;20054;-73
2023/10/09 10:48:39;;;;;;;0.80;0.77;;;18.20;99.90;;;;;;5093379;28;20043;-74
2023/10/09 10:51:05;;;;;;;1.23;0.60;;;18.20;99.90;;;;;;5092988;28;20042;-74
2023/10/09 10:53:49;;;;;;;1.15;0.70;;;18.20;99.90;;;;;;5078162;28;20116;-74
2023/10/09 10:59:26;;;;;;;0.60;0.40;;;18.30;99.90;;;;;;5090856;28;20044;-74
2023/10/09 11:07:16;;;;;;;0.50;0.50;;;18.40;99.90;;;;;;5089446;28;20048;-73
2023/10/09 11:12:45;;;;;;;1.27;0.77;;;18.40;99.90;;;;;;5116432;27;20212;-75
2023/10/09 11:18:19;;;;;;;2.53;0.68;;;18.30;99.90;;;;;;5090209;28;20092;-77
2023/10/09 11:26:21;;;;;;;2.20;1.20;;;18.20;99.90;;;;;;5119766;27;20533;-75
2023/10/09 11:28:49;;;;;;;0.35;0.28;;;18.20;99.90;;;;;;5084824;28;20039;-69
2023/10/09 11:31:16;;;;;;;0.60;0.60;;;18.30;99.90;;;;;;5082605;28;20031;-74
2023/10/09 11:33:48;;;;;;;0.52;0.52;;;18.30;99.90;;;;;;5091364;28;20419;-74
2023/10/09 11:36:16;;;;;;;2.58;1.70;;;18.40;99.90;;;;;;5126839;27;20401;-71
2023/10/09 11:38:45;;;;;;;2.03;1.05;;;18.50;99.90;;;;;;5092782;28;20466;-73
2023/10/09 11:41:19;;;;;;;2.08;0.80;;;18.70;99.90;;;;;;5092461;28;20104;-74
2023/10/09 11:43:57;;;;;;;0.73;0.40;;;18.80;99.90;;;;;;5122742;27;20776;-73
2023/10/09 11:46:48;;;;;;;0.77;0.77;;;19.10;99.90;;;;;;5091442;28;20044;-73
2023/10/09 11:49:25;;;;;;;1.33;1.08;;;19.30;99.90;;;;;;5088434;28;20040;-72
2023/10/09 11:52:35;;;;;;;1.30;1.15;;;19.30;99.90;;;;;;5091534;28;20059;-71
2023/10/09 11:54:56;;;;;;;1.48;1.20;;;19.20;99.90;;;;;;5125338;27;20043;-72
2023/10/09 11:57:30;;;;;;;0.82;0.82;;;19.20;99.90;;;;;;5092103;28;20035;-74
2023/10/09 11:59:57;;;;;;;1.67;1.58;;;19.10;99.90;;;;;;5090381;28;20055;-73
2023/10/09 12:02:22;;;;;;;0.30;0.30;;;19.10;99.90;;;;;;5086690;28;20130;-70
2023/10/09 12:04:48;;;;;;;0.57;0.40;;;19.00;99.90;;;;;;5085546;28;20099;-70
2023/10/09 12:07:14;;;;;;;0.55;0.10;;;19.00;99.90;;;;;;5084437;28;20534;-71
2023/10/09 12:09:40;;;;;;;0.90;0.90;;;19.00;99.90;;;;;;5087973;28;20044;-75
2023/10/09 12:12:08;;;;;;;0.82;0.70;;;18.90;99.90;;;;;;5087791;27;20036;-74
2023/10/09 12:14:34;;;;;;;0.68;0.68;;;18.90;99.90;;;;;;5119424;27;20112;-75
2023/10/09 12:17:06;;;;;;;0.30;0.30;;;18.80;99.90;;;;;;5083571;28;20035;-75
2023/10/09 12:19:36;;;;;;;0.68;0.57;;;18.80;99.90;;;;;;5084149;28;20084;-71
2023/10/09 12:22:04;;;;;;;0.28;0.28;;;18.80;99.90;;;;;;5084172;28;20046;-77
2023/10/09 12:24:30;;;;;;;0.47;0.47;;;18.80;99.90;;;;;;5090308;28;20028;-74
2023/10/09 12:26:58;;;;;;;3.38;0.68;;;18.80;99.90;;;;;;5091693;28;20039;-72
2023/10/09 12:29:24;;;;;;;10.23;0.52;;;18.80;99.90;;;;;;5088226;28;20156;-71
2023/10/09 12:31:58;;;;;;;0.30;0.30;;;18.80;99.90;;;;;;5081269;28;20084;-73
2023/10/09 12:34:26;;;;;;;1.17;0.90;;;18.80;99.90;;;;;;5090087;28;20066;-75
2023/10/09 12:36:54;;;;;;;2.78;1.58;;;18.80;99.90;;;;;;5078044;28;20039;-74
2023/10/09 12:39:21;;;;;;;0.82;0.55;;;18.70;99.90;;;;;;5082710;28;20122;-74
2023/10/09 12:41:48;;;;;;;0.75;0.70;;;18.70;99.90;;;;;;5112852;28;20036;-74
2023/10/09 12:44:19;;;;;;;0.28;0.28;;;18.60;99.90;;;;;;5084560;28;20076;-73
2023/10/09 12:46:51;;;;;;;0.63;0.47;;;18.60;99.90;;;;;;5084621;28;20386;-74
2023/10/09 12:49:26;;;;;;;1.08;0.85;;;18.60;99.90;;;;;;5114583;28;20040;-73
2023/10/09 12:51:52;;;;;;;0.40;0.40;;;18.60;99.90;;;;;;5089549;28;20044;-74
2023/10/09 12:54:20;;;;;;;2.67;0.63;;;18.50;99.90;;;;;;5091307;28;20417;-73
2023/10/09 12:56:48;;;;;;;0.10;0.10;;;18.50;99.90;;;;;;5085476;28;20099;-74
2023/10/09 12:59:14;;;;;;;1.13;0.98;;;18.50;99.90;;;;;;5108782;28;20059;-73
2023/10/09 13:01:44;;;;;;;0.75;0.75;;;18.50;99.90;;;;;;5091039;28;20052;-75
2023/10/09 13:04:16;;;;;;;0.32;0.32;;;18.50;99.90;;;;;;5088729;28;20130;-71
2023/10/09 13:06:45;;;;;;;0.63;0.57;;;18.50;99.90;;;;;;5090713;28;20036;-75
2023/10/09 13:09:13;;;;;;;0.40;0.40;;;18.60;99.90;;;;;;5091620;28;20084;-76
2023/10/09 13:11:40;;;;;;;1.55;0.50;;;18.70;99.90;;;;;;5084880;28;20386;-74
2023/10/09 13:14:16;;;;;;;1.55;1.00;;;18.70;99.90;;;;;;5118224;28;20127;-71
2023/10/09 13:16:47;;;;;;;1.73;0.47;;;18.70;99.90;;;;;;5090788;28;20062;-75
2023/10/09 13:19:12;;;;;;;0.50;0.50;;;18.70;99.90;;;;;;5089223;28;20058;-74
2023/10/09 13:21:42;;;;;;;1.40;1.17;;;18.70;99.90;;;;;;5089314;28;20043;-74
2023/10/09 13:24:15;;;;;;;1.58;0.90;;;18.70;99.90;;;;;;5125174;28;20098;-73
2023/10/09 13:26:44;;;;;;;0.63;0.40;;;18.60;99.90;;;;;;5091006;28;20043;-74
2023/10/09 13:29:11;;;;;;;0.20;0.20;;;18.60;99.90;;;;;;5091133;28;20397;-75
2023/10/09 13:31:39;;;;;;;1.00;0.95;;;18.50;99.90;;;;;;5080712;28;20035;-74
2023/10/09 13:34:14;;;;;;;0.57;0.35;;;18.50;99.90;;;;;;5091798;27;20405;-76
2023/10/09 13:36:45;;;;;;;1.17;0.38;;;18.40;99.90;;;;;;5114310;27;20047;-75
2023/10/09 13:39:22;;;;;;;6.20;0.77;;;18.50;99.90;;;;;;5085977;28;20393;-74
2023/10/09 13:41:50;;;;;;;0.32;0.20;;;18.50;99.90;;;;;;5124558;27;20056;-74
2023/10/09 13:44:16;;;;;;;0.55;0.47;;;18.50;99.90;;;;;;5094739;28;20062;-72
2023/10/09 13:46:42;;;;;;;0.20;0.20;;;18.50;99.90;;;;;;5088150;28;20040;-75
2023/10/09 13:49:12;;;;;;;0.40;0.38;;;18.50;99.90;;;;;;5075066;28;20081;-73
2023/10/09 13:51:44;;;;;;;0.57;0.57;;;18.40;99.90;;;;;;5114830;27;20104;-69
2023/10/09 13:54:39;;;;;;;;;;;18.40;99.90;;;;;;5128386;27;20119;-75
2023/10/09 13:57:05;;;;;;;1.77;0.30;;;18.30;99.90;;;;;;5126643;27;20414;-74
2023/10/09 13:59:34;;;;;;;1.65;0.90;;;18.20;99.90;;;;;;5089206;28;20035;-75
2023/10/09 14:02:02;;;;;;;1.50;1.40;;;18.20;99.90;;;;;;5065993;28;20036;-74
2023/10/09 14:04:28;;;;;;;0.47;0.20;;;18.20;99.90;;;;;;5119846;27;20473;-76
2023/10/09 14:06:58;;;;;;;0.90;0.77;;;18.20;99.90;;;;;;5093124;28;20363;-75
2023/10/09 14:09:30;;;;;;;0.28;0.28;;;18.10;99.90;;;;;;5095020;28;20156;-74
2023/10/09 14:12:06;;;;;;;0.85;0.70;;;18.20;99.90;;;;;;5095049;28;20096;-73
2023/10/09 14:14:40;;;;;;;0.70;0.70;;;18.10;99.90;;;;;;5094523;28;20114;-74
2023/10/09 14:17:13;;;;;;;0.55;0.55;;;18.20;99.90;;;;;;5093675;28;20075;-74
2023/10/09 14:19:47;;;;;;;0.00;0.00;;;18.20;99.90;;;;;;5094815;28;20123;-74
2023/10/09 14:22:26;;;;;;;1.70;0.70;;;18.30;99.90;;;;;;5094196;28;20090;-74
2023/10/09 14:24:55;;;;;;;0.40;0.40;;;18.40;99.90;;;;;;5095489;28;20040;-74
2023/10/09 14:27:26;;;;;;;0.45;0.30;;;18.50;99.90;;;;;;5093075;28;20389;-74
2023/10/09 14:29:59;;;;;;;0.73;0.73;;;18.50;99.90;;;;;;5094939;28;20496;-76
2023/10/09 14:32:43;;;;;;;;;;;18.50;99.90;;;;;;5092441;28;20035;-71
2023/10/09 14:35:12;;;;;;;0.50;0.50;;;18.50;99.90;;;;;;5118411;27;19923;-74
2023/10/09 14:37:41;;;;;;;1.25;0.28;;;18.50;99.90;;;;;;5115093;27;20053;-72
2023/10/09 14:40:13;;;;;;;0.20;0.20;;;18.50;99.90;;;;;;5085559;28;20127;-73
2023/10/09 14:42:45;;;;;;;1.00;0.65;;;18.50;99.90;;;;;;5118508;27;20486;-70
2023/10/09 14:45:15;;;;;;;;;;;18.50;99.90;;;;;;5089644;28;20040;-74
2023/10/09 14:47:46;;;;;;;1.00;1.00;;;18.50;99.90;;;;;;5077279;27;20023;-73
2023/10/09 14:50:13;;;;;;;2.75;0.68;;;18.40;99.90;;;;;;5089504;28;20035;-75
2023/10/09 14:52:39;;;;;;;0.65;0.50;;;18.50;99.90;;;;;;5090932;28;20062;-75
2023/10/09 14:55:09;;;;;;;0.32;0.30;;;18.50;99.90;;;;;;5085702;28;20546;-71
2023/10/09 14:57:35;;;;;;;0.70;0.65;;;18.40;99.90;;;;;;5084702;28;20039;-74
2023/10/09 15:00:07;;;;;;;0.30;0.30;;;18.40;99.90;;;;;;5088928;28;20497;-76
2023/10/09 15:02:33;;;;;;;;;;;18.30;99.90;;;;;;5083524;28;20523;-74
2023/10/09 15:04:59;;;;;;;0.73;0.73;;;18.30;99.90;;;;;;5085949;28;20058;-75
2023/10/09 15:07:24;;;;;;;0.40;0.32;;;18.20;99.90;;;;;;5120334;27;20466;-73
2023/10/09 15:09:50;;;;;;;0.10;0.10;;;18.20;99.90;;;;;;5085299;28;20085;-73
2023/10/09 15:12:16;;;;;;;1.65;0.45;;;18.20;99.90;;;;;;5081645;28;20111;-73
2023/10/09 15:14:42;;;;;;;0.75;0.52;;;18.10;99.90;;;;;;5085229;28;20146;-74
2023/10/09 15:17:08;;;;;;;0.30;0.30;;;18.10;99.90;;;;;;5078598;28;20127;-74
2023/10/09 15:19:34;;;;;;;0.20;0.20;;;18.00;99.90;;;;;;5078347;28;20115;-74
2023/10/09 15:22:00;;;;;;;1.27;0.98;;;18.10;99.90;;;;;;5082916;28;20042;-73
2023/10/09 15:24:29;;;;;;;3.97;2.60;;;18.00;99.90;;;;;;5082622;28;20046;-74
2023/10/09 15:26:58;;;;;;;0.47;0.45;;;18.00;99.90;;;;;;5079777;28;20054;-73
2023/10/09 15:29:30;;;;;;;0.28;0.20;;;18.00;99.90;;;;;;5081912;28;20036;-75
2023/10/09 15:31:56;;;;;;;0.45;0.28;;;18.00;99.90;;;;;;5116671;27;20092;-72
2023/10/09 15:34:22;;;;;;;0.28;0.15;;;18.00;99.90;;;;;;5079500;28;20036;-74
2023/10/09 15:36:48;;;;;;;0.30;0.30;;;18.00;99.90;;;;;;5080289;28;20134;-75
2023/10/09 15:39:19;;;;;;;0.47;0.35;;;18.00;99.90;;;;;;5079733;28;20385;-73
2023/10/09 15:41:48;;;;;;;0.20;0.20;;;18.00;99.90;;;;;;5114547;27;20051;-75
2023/10/09 15:44:14;;;;;;;3.30;0.55;;;18.00;99.90;;;;;;5112930;27;20046;-73
2023/10/09 15:46:40;;;;;;;0.63;0.63;;;17.90;99.90;;;;;;5080067;28;20106;-73
2023/10/09 15:49:09;;;;;;;0.25;0.25;;;17.90;99.90;;;;;;5075797;28;20098;-73
2023/10/09 15:51:35;;;;;;;1.38;0.82;;;17.90;99.90;;;;;;5075726;28;20096;-73
2023/10/09 15:54:01;;;;;;;0.03;0.03;;;17.80;99.90;;;;;;5102155;28;20040;-73
2023/10/09 15:56:27;;;;;;;0.25;0.20;;;17.80;99.90;;;;;;5083716;27;20031;-73
2023/10/09 15:58:53;;;;;;;0.20;0.20;;;17.80;99.90;;;;;;5081902;28;20040;-73